Time;durP1;ratioP1;P1;durP2;ratioP2;P2;SDS_P1;SDS_P2;PMS_P1;PMS_P2;Temp;Humidity;BMP_temperature;BMP_pressure;BME280_temperature;BME280_humidity;BME280_pressure;Samples;Min_cycle;Max_cycle;Signal;HPM_P1;HPM_P2
2022/07/20 00:01:57;;;;;;;0.00;0.00;;;22.60;97.30;;;;;;4886573;29;20871;-69
2022/07/20 00:04:25;;;;;;;0.00;0.00;;;22.60;97.40;;;;;;4887401;29;20448;-69
2022/07/20 00:06:54;;;;;;;0.00;0.00;;;22.60;97.40;;;;;;4887130;29;20472;-69
2022/07/20 00:12:09;;;;;;;0.00;0.00;;;22.70;97.40;;;;;;4886908;29;20436;-70
2022/07/20 00:14:37;;;;;;;0.00;0.00;;;22.80;97.40;;;;;;4886992;29;20588;-69
2022/07/20 00:17:05;;;;;;;0.00;0.00;;;22.70;97.40;;;;;;4887300;29;20506;-70
2022/07/20 00:19:33;;;;;;;0.00;0.00;;;22.80;97.40;;;;;;4886860;29;20487;-70
2022/07/20 00:22:01;;;;;;;0.00;0.00;;;22.70;97.40;;;;;;4886604;29;20464;-69
2022/07/20 00:24:29;;;;;;;0.00;0.00;;;22.70;97.40;;;;;;4886888;29;20474;-68
2022/07/20 00:26:56;;;;;;;0.00;0.00;;;22.60;97.40;;;;;;4886467;29;20961;-70
2022/07/20 00:29:26;;;;;;;0.00;0.00;;;22.60;97.60;;;;;;4886811;29;20460;-70
2022/07/20 00:31:53;;;;;;;0.00;0.00;;;22.60;97.60;;;;;;4886905;29;20483;-70
2022/07/20 00:34:21;;;;;;;0.00;0.00;;;22.50;97.70;;;;;;4886390;29;20453;-70
2022/07/20 00:36:49;;;;;;;0.00;0.00;;;22.50;97.80;;;;;;4886578;29;20473;-70
2022/07/20 00:39:17;;;;;;;0.00;0.00;;;22.40;97.80;;;;;;4886671;29;20584;-70
2022/07/20 00:41:45;;;;;;;0.00;0.00;;;22.40;98.00;;;;;;4886113;29;20462;-70
2022/07/20 00:44:13;;;;;;;0.00;0.00;;;22.30;98.00;;;;;;4885937;29;20448;-70
2022/07/20 00:46:45;;;;;;;0.00;0.00;;;22.30;98.10;;;;;;4886381;29;20455;-70
2022/07/20 00:49:14;;;;;;;0.00;0.00;;;22.20;98.20;;;;;;4885838;29;20440;-70
2022/07/20 00:51:44;;;;;;;0.00;0.00;;;22.20;98.30;;;;;;4885814;29;20654;-70
2022/07/20 00:54:13;;;;;;;0.00;0.00;;;22.10;98.40;;;;;;4885884;29;20804;-68
2022/07/20 00:56:41;;;;;;;0.00;0.00;;;22.10;98.40;;;;;;4886013;29;20551;-68
2022/07/20 00:59:10;;;;;;;0.00;0.00;;;22.10;98.50;;;;;;4886219;29;20752;-68
2022/07/20 01:01:40;;;;;;;0.00;0.00;;;22.10;98.60;;;;;;4886132;29;20511;-68
2022/07/20 01:04:09;;;;;;;0.00;0.00;;;22.10;98.60;;;;;;4886239;29;20532;-69
2022/07/20 01:06:37;;;;;;;0.00;0.00;;;22.00;98.50;;;;;;4885874;29;20842;-69
2022/07/20 01:09:05;;;;;;;0.00;0.00;;;22.00;98.60;;;;;;4885732;29;20445;-69
2022/07/20 01:11:34;;;;;;;0.00;0.00;;;22.00;98.60;;;;;;4885171;29;20559;-69
2022/07/20 01:14:03;;;;;;;0.00;0.00;;;22.00;98.70;;;;;;4884988;29;20463;-67
2022/07/20 01:16:31;;;;;;;0.00;0.00;;;22.00;98.80;;;;;;4885558;29;20956;-68
2022/07/20 01:18:59;;;;;;;0.00;0.00;;;22.00;98.80;;;;;;4885370;29;20448;-68
2022/07/20 01:21:28;;;;;;;0.00;0.00;;;21.90;98.80;;;;;;4885152;29;20454;-68
2022/07/20 01:23:56;;;;;;;0.00;0.00;;;21.90;98.90;;;;;;4885633;29;20470;-71
2022/07/20 01:26:24;;;;;;;0.00;0.00;;;21.90;99.00;;;;;;4878989;29;20461;-69
2022/07/20 01:28:52;;;;;;;0.00;0.00;;;21.90;98.90;;;;;;4878654;29;20995;-69
2022/07/20 01:31:23;;;;;;;0.00;0.00;;;21.80;98.90;;;;;;4867075;29;20716;-72
2022/07/20 01:33:51;;;;;;;0.00;0.00;;;21.80;99.00;;;;;;4867288;29;21007;-72
2022/07/20 01:36:19;;;;;;;0.00;0.00;;;21.80;99.10;;;;;;4867158;29;20918;-71
2022/07/20 01:38:48;;;;;;;0.00;0.00;;;21.80;99.20;;;;;;4866697;29;20810;-71
2022/07/20 01:41:17;;;;;;;0.00;0.00;;;21.80;99.10;;;;;;4882574;29;21046;-71
2022/07/20 01:43:45;;;;;;;0.00;0.00;;;21.80;99.10;;;;;;4873542;29;20510;-68
2022/07/20 01:46:13;;;;;;;0.00;0.00;;;21.70;99.10;;;;;;4872555;29;20516;-69
2022/07/20 01:48:41;;;;;;;0.00;0.00;;;21.70;99.20;;;;;;4885469;29;20483;-71
2022/07/20 01:51:09;;;;;;;0.00;0.00;;;21.70;99.30;;;;;;4885135;29;20551;-71
2022/07/20 01:53:37;;;;;;;0.00;0.00;;;21.60;99.40;;;;;;4888748;29;20479;-71
2022/07/20 01:56:07;;;;;;;0.00;0.00;;;21.50;99.60;;;;;;4886054;29;20976;-69
2022/07/20 01:58:35;;;;;;;0.00;0.00;;;21.50;99.70;;;;;;4885896;29;20488;-67
2022/07/20 02:01:03;;;;;;;0.00;0.00;;;21.50;99.80;;;;;;4884382;29;20555;-66
2022/07/20 02:03:31;;;;;;;0.00;0.00;;;21.50;99.70;;;;;;4871537;29;20476;-69
2022/07/20 02:05:59;;;;;;;0.00;0.00;;;21.50;99.80;;;;;;4867523;29;20448;-73
2022/07/20 02:08:28;;;;;;;0.00;0.00;;;21.40;99.80;;;;;;4885754;29;20485;-77
2022/07/20 02:10:56;;;;;;;0.00;0.00;;;21.40;99.80;;;;;;4886527;29;20717;-76
2022/07/20 02:13:25;;;;;;;0.00;0.00;;;21.40;99.90;;;;;;4879320;29;20452;-76
2022/07/20 02:21:30;;;;;;;0.00;0.00;;;21.40;99.90;;;;;;5498645;23;20492;-93
2022/07/20 02:23:59;;;;;;;0.00;0.00;;;21.40;99.90;;;;;;4935408;29;20466;-95
2022/07/20 02:26:34;;;;;;;0.00;0.00;;;21.40;99.90;;;;;;4934013;29;20469;-95
2022/07/20 02:29:04;;;;;;;0.00;0.00;;;21.40;99.90;;;;;;4933413;29;20439;-94
2022/07/20 02:31:35;;;;;;;0.00;0.00;;;21.40;99.90;;;;;;4940549;28;20442;-95
2022/07/20 02:34:03;;;;;;;0.00;0.00;;;21.40;99.90;;;;;;4948509;28;20522;-91
2022/07/20 02:36:32;;;;;;;0.00;0.00;;;21.40;99.90;;;;;;4935671;29;20484;-92
2022/07/20 02:39:00;;;;;;;0.00;0.00;;;21.40;99.90;;;;;;4932724;29;20793;-91
2022/07/20 02:41:34;;;;;;;0.00;0.00;;;21.40;99.90;;;;;;4937517;29;20509;-93
2022/07/20 02:44:06;;;;;;;0.00;0.00;;;21.30;99.90;;;;;;4930418;29;20456;-92
2022/07/20 02:46:36;;;;;;;0.00;0.00;;;21.30;99.90;;;;;;4931537;29;20524;-93
2022/07/20 02:51:58;;;;;;;0.00;0.00;;;21.20;99.90;;;;;;4896787;29;20471;-94
2022/07/20 02:54:26;;;;;;;0.00;0.00;;;21.20;99.90;;;;;;4904987;29;20508;-94
2022/07/20 02:56:54;;;;;;;0.00;0.00;;;21.10;99.90;;;;;;4912399;29;20543;-93
2022/07/20 02:59:24;;;;;;;0.00;0.00;;;21.10;99.90;;;;;;4911792;29;20501;-95
2022/07/20 03:01:52;;;;;;;0.00;0.00;;;21.10;99.90;;;;;;4911504;29;20483;-93
2022/07/20 03:04:20;;;;;;;0.00;0.00;;;21.00;99.90;;;;;;4912325;29;20522;-93
2022/07/20 03:06:49;;;;;;;0.00;0.00;;;21.00;99.90;;;;;;4912474;29;20439;-93
2022/07/20 03:09:28;;;;;;;0.00;0.00;;;21.00;99.90;;;;;;4912230;29;20503;-95
2022/07/20 03:11:57;;;;;;;0.00;0.00;;;21.00;99.90;;;;;;4912126;29;20761;-92
2022/07/20 03:14:26;;;;;;;0.00;0.00;;;20.90;99.90;;;;;;4912474;29;20446;-94
2022/07/20 03:16:54;;;;;;;0.00;0.00;;;20.90;99.90;;;;;;4938125;28;20437;-93
2022/07/20 03:19:22;;;;;;;0.00;0.00;;;20.90;99.90;;;;;;4951645;28;20526;-93
2022/07/20 03:21:50;;;;;;;0.00;0.00;;;20.90;99.90;;;;;;4951474;28;20537;-93
2022/07/20 03:24:19;;;;;;;0.00;0.00;;;20.90;99.90;;;;;;4951759;28;20476;-93
2022/07/20 03:26:47;;;;;;;0.00;0.00;;;20.90;99.90;;;;;;4951570;28;20445;-92
2022/07/20 03:29:15;;;;;;;0.00;0.00;;;20.90;99.90;;;;;;4951439;28;20535;-90
2022/07/20 03:31:44;;;;;;;0.00;0.00;;;20.90;99.90;;;;;;4951076;28;20442;-91
2022/07/20 03:34:12;;;;;;;0.00;0.00;;;20.90;99.90;;;;;;4951192;28;20501;-93
2022/07/20 03:36:42;;;;;;;0.00;0.00;;;20.90;99.90;;;;;;4951119;28;20539;-93
2022/07/20 03:39:25;;;;;;;0.00;0.00;;;20.90;99.90;;;;;;4951724;28;20437;-92
2022/07/20 03:42:01;;;;;;;0.00;0.00;;;20.90;99.90;;;;;;4951617;28;20492;-94
2022/07/20 03:44:31;;;;;;;0.00;0.00;;;20.90;99.90;;;;;;4951843;28;20448;-93
2022/07/20 03:47:13;;;;;;;0.00;0.00;;;20.90;99.90;;;;;;4952174;28;20509;-93
2022/07/20 03:50:07;;;;;;;0.00;0.00;;;20.80;99.90;;;;;;4951096;28;20525;-92
2022/07/20 03:52:35;;;;;;;0.00;0.00;;;20.80;99.90;;;;;;4950817;28;20477;-93
2022/07/20 03:55:04;;;;;;;0.00;0.00;;;20.80;99.90;;;;;;4950695;28;20508;-94
2022/07/20 03:57:33;;;;;;;0.00;0.00;;;20.80;99.90;;;;;;4951336;28;20546;-93
2022/07/20 04:00:02;;;;;;;0.00;0.00;;;20.80;99.90;;;;;;4951077;28;20457;-91
2022/07/20 04:02:32;;;;;;;0.00;0.00;;;20.80;99.90;;;;;;4950925;28;20615;-94
2022/07/20 04:05:00;;;;;;;0.00;0.00;;;20.90;99.90;;;;;;4951610;28;20450;-91
2022/07/20 04:07:28;;;;;;;0.00;0.00;;;20.90;99.90;;;;;;4951536;28;20446;-91
2022/07/20 04:09:56;;;;;;;0.00;0.00;;;20.90;99.90;;;;;;4951663;28;20478;-91
2022/07/20 04:12:28;;;;;;;0.00;0.00;;;20.90;99.90;;;;;;4951131;28;20469;-92
2022/07/20 04:14:56;;;;;;;0.00;0.00;;;20.90;99.90;;;;;;4951774;28;20457;-91
2022/07/20 04:17:24;;;;;;;0.00;0.00;;;20.90;99.90;;;;;;4951237;28;20450;-92
2022/07/20 04:19:54;;;;;;;0.00;0.00;;;20.90;99.90;;;;;;4947016;28;20476;-94
2022/07/20 04:22:22;;;;;;;0.00;0.00;;;20.90;99.90;;;;;;4931718;29;20497;-92
2022/07/20 04:24:50;;;;;;;0.00;0.00;;;21.00;99.90;;;;;;4931848;29;20459;-93
2022/07/20 04:27:18;;;;;;;0.00;0.00;;;21.00;99.90;;;;;;4932395;29;20443;-93
2022/07/20 04:29:46;;;;;;;0.00;0.00;;;21.00;99.90;;;;;;4932554;29;20446;-93
2022/07/20 04:32:18;;;;;;;0.00;0.00;;;21.10;99.90;;;;;;4932186;29;20462;-92
2022/07/20 04:34:46;;;;;;;0.00;0.00;;;21.10;99.90;;;;;;4928138;29;20446;-92
2022/07/20 04:37:22;;;;;;;0.00;0.00;;;21.10;99.90;;;;;;4914163;29;20485;-91
2022/07/20 04:39:50;;;;;;;0.00;0.00;;;21.20;99.90;;;;;;4912913;29;20438;-91
2022/07/20 04:42:24;;;;;;;0.00;0.00;;;21.20;99.90;;;;;;4911047;29;20494;-89
2022/07/20 04:44:52;;;;;;;0.00;0.00;;;21.20;99.90;;;;;;4910297;29;20446;-90
2022/07/20 04:47:20;;;;;;;0.00;0.00;;;21.30;99.90;;;;;;4910057;29;20478;-91
2022/07/20 04:49:52;;;;;;;0.00;0.00;;;21.30;99.90;;;;;;4910991;29;20467;-90
2022/07/20 04:52:21;;;;;;;0.00;0.00;;;21.30;99.90;;;;;;4909947;29;20973;-90
2022/07/20 04:54:49;;;;;;;0.00;0.00;;;21.40;99.90;;;;;;4910740;29;20465;-90
2022/07/20 04:57:18;;;;;;;0.00;0.00;;;21.50;99.90;;;;;;4910726;29;20516;-90
2022/07/20 04:59:45;;;;;;;0.00;0.00;;;21.40;99.90;;;;;;4910735;29;20546;-90
2022/07/20 05:02:13;;;;;;;0.00;0.00;;;21.50;99.90;;;;;;4930088;29;20477;-88
2022/07/20 05:04:42;;;;;;;0.00;0.00;;;21.50;99.90;;;;;;4912225;29;20846;-91
2022/07/20 05:07:10;;;;;;;0.00;0.00;;;21.60;99.90;;;;;;4911010;29;20529;-91
2022/07/20 05:09:39;;;;;;;0.00;0.00;;;21.60;99.90;;;;;;4910532;29;20534;-89
2022/07/20 05:12:07;;;;;;;0.00;0.00;;;21.70;99.90;;;;;;4910217;29;20459;-91
2022/07/20 05:14:36;;;;;;;0.00;0.00;;;21.80;99.90;;;;;;4910352;29;20558;-90
2022/07/20 05:17:04;;;;;;;0.00;0.00;;;21.90;99.90;;;;;;4909755;29;20469;-90
2022/07/20 05:19:32;;;;;;;0.00;0.00;;;21.90;99.90;;;;;;4909099;29;20502;-89
2022/07/20 05:22:00;;;;;;;0.00;0.00;;;22.00;99.90;;;;;;4909415;29;20496;-90
2022/07/20 05:24:27;;;;;;;0.00;0.00;;;22.00;99.90;;;;;;4909377;29;20467;-89
2022/07/20 05:26:57;;;;;;;0.00;0.00;;;22.10;99.90;;;;;;4910355;29;20878;-91
2022/07/20 05:29:25;;;;;;;0.00;0.00;;;22.20;99.90;;;;;;4916836;29;20553;-90
2022/07/20 05:31:52;;;;;;;0.00;0.00;;;22.30;99.90;;;;;;4916165;29;21040;-89
2022/07/20 05:34:20;;;;;;;0.00;0.00;;;22.40;99.90;;;;;;4910803;29;20535;-89
2022/07/20 05:36:48;;;;;;;0.00;0.00;;;22.50;99.90;;;;;;4909797;29;20488;-89
2022/07/20 05:39:16;;;;;;;0.00;0.00;;;22.60;99.90;;;;;;4909976;29;20510;-90
2022/07/20 05:41:44;;;;;;;0.00;0.00;;;22.70;99.90;;;;;;4910318;29;20482;-89
2022/07/20 05:44:14;;;;;;;0.00;0.00;;;22.80;99.90;;;;;;4910883;29;20442;-90
2022/07/20 05:46:41;;;;;;;0.00;0.00;;;22.90;99.90;;;;;;4910024;29;20934;-90
2022/07/20 05:49:09;;;;;;;0.00;0.00;;;23.00;99.90;;;;;;4909817;29;20443;-89
2022/07/20 05:51:37;;;;;;;0.00;0.00;;;23.10;99.90;;;;;;4911147;29;20538;-89
2022/07/20 05:54:05;;;;;;;0.00;0.00;;;23.10;99.90;;;;;;4909825;29;20531;-91
2022/07/20 05:56:33;;;;;;;0.00;0.00;;;23.20;99.90;;;;;;4910603;29;20460;-89
2022/07/20 05:59:01;;;;;;;0.00;0.00;;;23.30;99.90;;;;;;4909271;29;20772;-91
2022/07/20 06:01:31;;;;;;;0.00;0.00;;;23.40;99.90;;;;;;4931379;29;20429;-92
2022/07/20 06:03:59;;;;;;;0.00;0.00;;;23.40;99.90;;;;;;4911966;29;20974;-90
2022/07/20 06:06:27;;;;;;;0.00;0.00;;;23.50;99.90;;;;;;4910816;29;20469;-90
2022/07/20 06:08:55;;;;;;;0.00;0.00;;;23.50;99.90;;;;;;4910408;29;20513;-89
2022/07/20 06:11:42;;;;;;;0.00;0.00;;;23.60;99.90;;;;;;4910148;29;20448;-91
2022/07/20 06:14:10;;;;;;;0.00;0.00;;;23.70;99.90;;;;;;4910439;29;20467;-91
2022/07/20 06:16:40;;;;;;;0.00;0.00;;;23.80;99.90;;;;;;4910326;29;20748;-90
2022/07/20 06:19:08;;;;;;;0.00;0.00;;;23.90;99.90;;;;;;4910582;29;20493;-91
2022/07/20 06:21:36;;;;;;;0.00;0.00;;;24.00;99.90;;;;;;4909741;29;20869;-90
2022/07/20 06:24:04;;;;;;;0.00;0.00;;;24.10;99.90;;;;;;4911118;29;20463;-90
2022/07/20 06:26:32;;;;;;;0.00;0.00;;;24.20;99.90;;;;;;4911282;29;20554;-89
2022/07/20 06:29:01;;;;;;;0.00;0.00;;;24.30;99.90;;;;;;4921063;29;20957;-90
2022/07/20 06:31:37;;;;;;;0.00;0.00;;;24.40;99.90;;;;;;4938366;29;20558;-93
2022/07/20 06:34:28;;;;;;;0.00;0.00;;;24.50;99.90;;;;;;4931474;29;20547;-90
2022/07/20 06:36:59;;;;;;;0.00;0.00;;;24.60;99.90;;;;;;4930961;29;20497;-89
2022/07/20 06:39:30;;;;;;;0.00;0.00;;;24.70;99.90;;;;;;4929426;29;20522;-89
2022/07/20 06:41:58;;;;;;;0.00;0.00;;;24.80;99.90;;;;;;4927676;29;20478;-87
2022/07/20 06:44:26;;;;;;;0.00;0.00;;;25.00;99.90;;;;;;4923736;29;20482;-90
2022/07/20 06:46:55;;;;;;;0.00;0.00;;;25.00;99.90;;;;;;4921032;29;20432;-90
2022/07/20 06:49:26;;;;;;;0.00;0.00;;;25.10;99.90;;;;;;4923287;29;20902;-89
2022/07/20 06:51:55;;;;;;;0.00;0.00;;;25.30;99.90;;;;;;4928929;29;20499;-89
2022/07/20 06:54:25;;;;;;;0.00;0.00;;;25.40;99.90;;;;;;4928940;29;20460;-91
2022/07/20 06:56:54;;;;;;;0.00;0.00;;;25.50;99.90;;;;;;4930592;29;20483;-91
2022/07/20 06:59:22;;;;;;;0.00;0.00;;;25.50;99.90;;;;;;4934856;29;20453;-89
2022/07/20 07:01:51;;;;;;;0.00;0.00;;;25.60;99.90;;;;;;4947191;28;20808;-90
2022/07/20 07:04:22;;;;;;;0.00;0.00;;;25.70;99.90;;;;;;4929938;29;20879;-90
2022/07/20 07:06:52;;;;;;;0.00;0.00;;;25.90;99.90;;;;;;4928173;29;20472;-91
2022/07/20 07:09:23;;;;;;;0.00;0.00;;;26.00;99.80;;;;;;4928173;29;20571;-90
2022/07/20 07:11:55;;;;;;;0.00;0.00;;;26.10;99.60;;;;;;4926846;29;20561;-91
2022/07/20 07:14:25;;;;;;;0.00;0.00;;;26.20;99.30;;;;;;4928654;29;20848;-89
2022/07/20 07:16:54;;;;;;;0.00;0.00;;;26.30;99.20;;;;;;4928877;29;20982;-92
2022/07/20 07:19:22;;;;;;;0.00;0.00;;;26.50;99.20;;;;;;4928948;29;20465;-89
2022/07/20 07:21:51;;;;;;;0.00;0.00;;;26.60;99.00;;;;;;4927456;29;20510;-90
2022/07/20 07:24:20;;;;;;;0.00;0.00;;;26.80;98.80;;;;;;4929727;29;20766;-91
2022/07/20 07:26:48;;;;;;;0.00;0.00;;;26.80;98.40;;;;;;4929313;29;20512;-91
2022/07/20 07:29:19;;;;;;;0.00;0.00;;;27.00;98.40;;;;;;4929611;29;20487;-89
2022/07/20 07:31:48;;;;;;;0.00;0.00;;;27.10;97.60;;;;;;4929604;29;20459;-90
2022/07/20 07:34:16;;;;;;;0.00;0.00;;;27.10;97.70;;;;;;4929498;29;20482;-92
2022/07/20 07:36:45;;;;;;;0.00;0.00;;;27.30;97.80;;;;;;4929774;29;20616;-88
2022/07/20 07:39:15;;;;;;;0.00;0.00;;;27.30;97.70;;;;;;4934281;29;20459;-89
2022/07/20 07:41:48;;;;;;;0.00;0.00;;;27.40;97.40;;;;;;4929115;29;20451;-89
2022/07/20 07:44:19;;;;;;;0.00;0.00;;;27.50;97.30;;;;;;4918454;29;20599;-88
2022/07/20 07:46:47;;;;;;;0.00;0.00;;;27.60;97.00;;;;;;4910400;29;20460;-89
2022/07/20 07:49:16;;;;;;;0.00;0.00;;;27.70;97.10;;;;;;4911127;29;20969;-90
2022/07/20 07:51:45;;;;;;;0.00;0.00;;;27.80;96.80;;;;;;4920467;29;20530;-91
2022/07/20 07:54:15;;;;;;;0.00;0.00;;;27.90;96.60;;;;;;4931335;29;20989;-89
2022/07/20 07:56:46;;;;;;;0.00;0.00;;;28.00;96.50;;;;;;4929083;29;20484;-91
2022/07/20 07:59:14;;;;;;;0.00;0.00;;;28.10;96.40;;;;;;4939368;29;20520;-90
2022/07/20 08:02:05;;;;;;;0.00;0.00;;;28.20;96.20;;;;;;4919042;29;21016;-91
2022/07/20 08:04:34;;;;;;;0.00;0.00;;;28.30;96.20;;;;;;4910290;29;20491;-91
2022/07/20 08:07:03;;;;;;;0.00;0.00;;;28.40;96.40;;;;;;4911531;29;20512;-90
2022/07/20 08:09:33;;;;;;;0.00;0.00;;;28.50;96.50;;;;;;4911470;29;20494;-91
2022/07/20 08:12:03;;;;;;;0.00;0.00;;;28.60;96.50;;;;;;4910409;29;20503;-90
2022/07/20 08:14:32;;;;;;;0.00;0.00;;;28.60;96.20;;;;;;4916103;29;20479;-91
2022/07/20 08:17:01;;;;;;;0.00;0.00;;;28.70;95.90;;;;;;4910670;29;20844;-89
2022/07/20 08:19:30;;;;;;;0.00;0.00;;;28.90;95.80;;;;;;4914209;29;20479;-93
2022/07/20 08:22:02;;;;;;;0.00;0.00;;;28.90;95.50;;;;;;4931370;29;21042;-89
2022/07/20 08:24:36;;;;;;;0.00;0.00;;;29.10;95.50;;;;;;4935896;29;21063;-89
2022/07/20 08:27:04;;;;;;;0.00;0.00;;;29.20;95.60;;;;;;4937215;29;20456;-91
2022/07/20 08:29:35;;;;;;;0.00;0.00;;;29.30;95.20;;;;;;4937516;29;20536;-90
2022/07/20 08:32:03;;;;;;;0.00;0.00;;;29.40;95.20;;;;;;4936935;29;20480;-93
2022/07/20 08:34:34;;;;;;;0.00;0.00;;;29.50;95.00;;;;;;4937663;29;20484;-90
2022/07/20 08:37:03;;;;;;;0.00;0.00;;;29.50;95.00;;;;;;4937078;29;20540;-90
2022/07/20 08:39:34;;;;;;;0.00;0.00;;;29.60;95.00;;;;;;4931193;29;21077;-89
2022/07/20 08:42:09;;;;;;;0.00;0.00;;;29.70;94.80;;;;;;4918896;29;20555;-91
2022/07/20 08:44:39;;;;;;;0.00;0.00;;;29.80;94.80;;;;;;4931541;29;20625;-91
2022/07/20 08:47:12;;;;;;;0.00;0.00;;;29.90;95.00;;;;;;4924030;29;20545;-92
2022/07/20 08:49:46;;;;;;;0.00;0.00;;;29.90;94.60;;;;;;4912697;29;20537;-88
2022/07/20 08:52:15;;;;;;;0.00;0.00;;;30.10;94.60;;;;;;4919316;29;20472;-90
2022/07/20 08:54:45;;;;;;;0.00;0.00;;;30.10;94.50;;;;;;4925545;29;20461;-91
2022/07/20 08:57:17;;;;;;;0.00;0.00;;;30.20;94.50;;;;;;4932092;29;20571;-91
2022/07/20 08:59:47;;;;;;;0.00;0.00;;;30.30;94.20;;;;;;4935023;29;20480;-89
2022/07/20 09:02:16;;;;;;;0.00;0.00;;;30.30;94.20;;;;;;4934425;29;20473;-92
2022/07/20 09:04:53;;;;;;;0.00;0.00;;;30.40;94.20;;;;;;4933362;29;20484;-88
2022/07/20 09:07:38;;;;;;;0.00;0.00;;;30.50;94.50;;;;;;4933170;29;20480;-89
2022/07/20 09:10:10;;;;;;;0.00;0.00;;;30.60;94.30;;;;;;4932874;29;20481;-91
2022/07/20 09:12:56;;;;;;;0.00;0.00;;;30.60;94.20;;;;;;4934513;29;20472;-89
2022/07/20 09:15:37;;;;;;;0.00;0.00;;;30.70;94.20;;;;;;4940602;29;20560;-89
2022/07/20 09:18:14;;;;;;;0.00;0.00;;;30.80;94.00;;;;;;4939244;29;20687;-91
2022/07/20 09:20:45;;;;;;;0.00;0.00;;;30.90;93.80;;;;;;4935459;29;20461;-89
2022/07/20 09:23:18;;;;;;;0.00;0.00;;;31.10;93.90;;;;;;4930501;29;20511;-91
2022/07/20 09:25:56;;;;;;;0.00;0.00;;;31.10;94.00;;;;;;4933283;29;20592;-87
2022/07/20 09:28:35;;;;;;;0.00;0.00;;;31.20;94.10;;;;;;4935274;29;20722;-88
2022/07/20 09:31:15;;;;;;;0.00;0.00;;;31.30;94.00;;;;;;4931596;29;20449;-88
2022/07/20 09:33:50;;;;;;;0.00;0.00;;;31.30;93.70;;;;;;4929953;29;20888;-89
2022/07/20 09:36:20;;;;;;;0.00;0.00;;;31.40;93.80;;;;;;4931372;29;20461;-92
2022/07/20 09:38:48;;;;;;;0.00;0.00;;;31.50;93.50;;;;;;4931865;29;20460;-90
2022/07/20 09:41:26;;;;;;;0.00;0.00;;;31.60;93.50;;;;;;4930873;29;20468;-89
2022/07/20 09:43:57;;;;;;;0.00;0.00;;;31.70;93.60;;;;;;4931553;29;21108;-91
2022/07/20 09:46:28;;;;;;;0.00;0.00;;;31.80;93.60;;;;;;4930144;29;20584;-87
2022/07/20 09:48:58;;;;;;;0.00;0.00;;;31.90;93.40;;;;;;4929342;29;20449;-89
2022/07/20 09:51:28;;;;;;;0.00;0.00;;;32.00;93.40;;;;;;4931936;29;20487;-88
2022/07/20 09:54:02;;;;;;;0.00;0.00;;;32.10;93.40;;;;;;4931689;29;20477;-90
2022/07/20 09:56:35;;;;;;;0.00;0.00;;;32.20;93.30;;;;;;4931084;29;20720;-90
2022/07/20 09:59:05;;;;;;;0.00;0.00;;;32.30;93.30;;;;;;4948216;28;20444;-89
2022/07/20 10:01:35;;;;;;;0.00;0.00;;;32.40;93.30;;;;;;4939486;29;20457;-88
2022/07/20 10:04:11;;;;;;;0.00;0.00;;;32.40;92.90;;;;;;4931277;29;20564;-88
2022/07/20 10:06:42;;;;;;;0.00;0.00;;;32.50;92.70;;;;;;4934765;29;20489;-89
2022/07/20 10:09:11;;;;;;;0.00;0.00;;;32.60;92.50;;;;;;4931174;29;20457;-88
2022/07/20 10:11:41;;;;;;;0.00;0.00;;;32.70;92.60;;;;;;4929649;29;20492;-88
2022/07/20 10:14:09;;;;;;;0.00;0.00;;;32.70;92.40;;;;;;4930927;29;20492;-87
2022/07/20 10:16:40;;;;;;;0.00;0.00;;;32.80;92.50;;;;;;4929642;29;20449;-88
2022/07/20 10:19:10;;;;;;;0.00;0.00;;;32.90;92.60;;;;;;4928920;29;20473;-85
2022/07/20 10:21:40;;;;;;;0.00;0.00;;;33.00;92.70;;;;;;4914393;29;20693;-86
2022/07/20 10:24:17;;;;;;;0.00;0.00;;;33.10;92.70;;;;;;4914878;29;20764;-87
2022/07/20 10:26:49;;;;;;;0.00;0.00;;;33.20;92.70;;;;;;4925794;29;20450;-88
2022/07/20 10:29:32;;;;;;;0.00;0.00;;;33.30;92.50;;;;;;4933705;29;20469;-86
2022/07/20 10:32:16;;;;;;;0.00;0.00;;;33.40;92.20;;;;;;4933606;29;20494;-85
2022/07/20 10:34:46;;;;;;;0.00;0.00;;;33.50;92.10;;;;;;4933928;29;20450;-87
2022/07/20 10:37:24;;;;;;;0.00;0.00;;;33.50;92.10;;;;;;4918744;29;20794;-87
2022/07/20 10:39:53;;;;;;;0.00;0.00;;;33.60;92.00;;;;;;4931216;29;20504;-89
2022/07/20 10:42:30;;;;;;;0.00;0.00;;;33.70;91.70;;;;;;4935464;29;20536;-92
2022/07/20 10:45:32;;;;;;;0.00;0.00;;;33.80;91.50;;;;;;4935493;29;20476;-91
2022/07/20 10:48:16;;;;;;;0.00;0.00;;;33.90;91.70;;;;;;4932548;29;20469;-88
2022/07/20 10:50:48;;;;;;;0.00;0.00;;;34.00;91.40;;;;;;4927302;29;20503;-90
2022/07/20 10:53:43;;;;;;;0.00;0.00;;;34.10;91.40;;;;;;4933603;29;20466;-88
2022/07/20 10:56:11;;;;;;;0.00;0.00;;;34.30;91.00;;;;;;4887696;29;20512;-86
2022/07/20 10:58:43;;;;;;;0.00;0.00;;;34.40;90.70;;;;;;4947233;28;20445;-88
2022/07/20 11:01:29;;;;;;;0.00;0.00;;;34.40;90.80;;;;;;4948294;28;20751;-87
2022/07/20 11:04:12;;;;;;;0.00;0.00;;;34.60;91.10;;;;;;4936013;29;20934;-89
2022/07/20 11:06:50;;;;;;;0.00;0.00;;;34.60;90.90;;;;;;4935014;29;20508;-90
2022/07/20 11:09:31;;;;;;;0.00;0.00;;;34.70;90.50;;;;;;4935852;29;20468;-87
2022/07/20 11:12:02;;;;;;;0.00;0.00;;;34.80;90.00;;;;;;4933326;29;20759;-87
2022/07/20 11:14:56;;;;;;;0.00;0.00;;;34.80;89.70;;;;;;4914458;29;20447;-90
2022/07/20 11:17:24;;;;;;;0.00;0.00;;;34.90;90.10;;;;;;4915396;29;20743;-87
2022/07/20 11:19:52;;;;;;;0.00;0.00;;;35.00;89.60;;;;;;4918633;29;20466;-89
2022/07/20 11:22:21;;;;;;;0.00;0.00;;;35.00;88.80;;;;;;4917949;29;20826;-87
2022/07/20 11:24:56;;;;;;;0.00;0.00;;;35.10;87.80;;;;;;4918424;29;20492;-88
2022/07/20 11:27:24;;;;;;;0.00;0.00;;;35.20;86.70;;;;;;4929317;29;21253;-89
2022/07/20 11:29:54;;;;;;;0.00;0.00;;;35.30;84.60;;;;;;4931766;29;20521;-90
2022/07/20 11:32:27;;;;;;;0.00;0.00;;;35.40;83.40;;;;;;4924143;29;20533;-89
2022/07/20 11:34:55;;;;;;;0.00;0.00;;;35.50;83.60;;;;;;4919899;29;21015;-89
2022/07/20 11:37:26;;;;;;;0.00;0.00;;;35.60;84.20;;;;;;4911365;29;20486;-89
2022/07/20 11:39:55;;;;;;;0.00;0.00;;;35.70;85.00;;;;;;4911817;29;20489;-89
2022/07/20 11:42:32;;;;;;;0.00;0.00;;;35.80;83.30;;;;;;4914151;29;20473;-87
2022/07/20 11:45:05;;;;;;;0.00;0.00;;;35.90;82.60;;;;;;4922254;29;20568;-90
2022/07/20 11:47:34;;;;;;;0.00;0.00;;;35.90;82.70;;;;;;4913535;29;20447;-88
2022/07/20 11:50:13;;;;;;;0.00;0.00;;;36.00;82.70;;;;;;4913179;29;20490;-88
2022/07/20 11:52:47;;;;;;;0.00;0.00;;;36.10;81.60;;;;;;4911704;29;20512;-87
2022/07/20 11:55:15;;;;;;;0.00;0.00;;;36.10;82.00;;;;;;4924241;29;20567;-88
2022/07/20 11:57:43;;;;;;;0.00;0.00;;;36.20;81.60;;;;;;4925795;29;20446;-90
2022/07/20 12:00:16;;;;;;;0.00;0.00;;;36.20;81.60;;;;;;4930478;29;20473;-89
2022/07/20 12:02:58;;;;;;;0.00;0.00;;;36.20;81.60;;;;;;4928442;29;20462;-90
2022/07/20 12:05:39;;;;;;;0.00;0.00;;;36.20;81.20;;;;;;4924918;29;20481;-91
2022/07/20 12:08:12;;;;;;;0.00;0.00;;;36.30;81.10;;;;;;4929189;29;20465;-91
2022/07/20 12:10:45;;;;;;;0.00;0.00;;;36.30;80.90;;;;;;4928110;29;20460;-91
2022/07/20 12:13:17;;;;;;;0.00;0.00;;;36.30;80.20;;;;;;4912189;29;20496;-91
2022/07/20 12:15:58;;;;;;;0.00;0.00;;;36.40;80.50;;;;;;4911556;29;20522;-90
2022/07/20 12:18:37;;;;;;;0.00;0.00;;;36.50;81.40;;;;;;4913315;29;20578;-90
2022/07/20 12:21:08;;;;;;;0.00;0.00;;;36.60;81.00;;;;;;4921001;29;20682;-88
2022/07/20 12:23:37;;;;;;;0.00;0.00;;;36.60;81.00;;;;;;4926980;29;20601;-90
2022/07/20 12:26:25;;;;;;;0.00;0.00;;;36.70;80.10;;;;;;4925916;29;20540;-91
2022/07/20 12:28:54;;;;;;;0.00;0.00;;;36.70;79.10;;;;;;4928902;29;21138;-90
2022/07/20 12:31:27;;;;;;;0.00;0.00;;;36.80;79.10;;;;;;4925112;29;20470;-91
2022/07/20 12:34:07;;;;;;;0.00;0.00;;;36.80;78.80;;;;;;4926782;29;20445;-88
2022/07/20 12:36:39;;;;;;;0.00;0.00;;;36.90;79.20;;;;;;4916497;29;21128;-90
2022/07/20 12:39:32;;;;;;;0.00;0.00;;;36.80;79.50;;;;;;4924715;29;20526;-89
2022/07/20 12:42:10;;;;;;;0.00;0.00;;;36.80;78.30;;;;;;4911858;29;20474;-92
2022/07/20 12:45:01;;;;;;;0.00;0.00;;;36.90;77.40;;;;;;4911502;29;20446;-91
2022/07/20 12:47:31;;;;;;;0.00;0.00;;;36.90;76.80;;;;;;4911439;29;20565;-88
2022/07/20 12:50:21;;;;;;;0.00;0.00;;;37.00;76.90;;;;;;4911929;29;20509;-90
2022/07/20 12:52:48;;;;;;;0.00;0.00;;;37.00;76.10;;;;;;4912555;29;20498;-88
2022/07/20 12:55:17;;;;;;;0.00;0.00;;;36.90;74.40;;;;;;4915968;29;20454;-90
2022/07/20 12:57:47;;;;;;;0.00;0.00;;;37.00;73.50;;;;;;4925126;29;20470;-90
2022/07/20 13:00:16;;;;;;;0.00;0.00;;;37.10;71.90;;;;;;4943856;28;20448;-90
2022/07/20 13:02:45;;;;;;;0.00;0.00;;;37.10;71.10;;;;;;4932532;29;20508;-90
2022/07/20 13:05:15;;;;;;;0.00;0.00;;;37.00;70.60;;;;;;4915503;29;21000;-89
2022/07/20 13:07:46;;;;;;;0.00;0.00;;;36.90;71.50;;;;;;4908489;29;20478;-89
2022/07/20 13:10:19;;;;;;;0.00;0.00;;;37.10;71.60;;;;;;4913814;29;20529;-90
2022/07/20 13:12:47;;;;;;;0.00;0.00;;;37.10;71.60;;;;;;4929837;29;20721;-91
2022/07/20 13:15:19;;;;;;;0.00;0.00;;;37.20;71.10;;;;;;4931094;29;20445;-89
2022/07/20 13:18:09;;;;;;;0.00;0.00;;;37.30;71.70;;;;;;4916755;29;20461;-89
2022/07/20 13:20:39;;;;;;;0.00;0.00;;;37.20;70.40;;;;;;4927172;29;20545;-90